sensor_id;sensor_type;location;lat;lon;timestamp;P1;durP1;ratioP1;P2;durP2;ratioP2
41480;SDS011;27217;51.220;5.308;2023-10-08T00:01:08;7.72;;;3.30;;
41480;SDS011;27217;51.220;5.308;2023-10-08T00:03:37;9.80;;;3.33;;
41480;SDS011;27217;51.220;5.308;2023-10-08T00:06:03;9.30;;;3.78;;
41480;SDS011;27217;51.220;5.308;2023-10-08T00:08:37;10.00;;;3.22;;
41480;SDS011;27217;51.220;5.308;2023-10-08T00:11:03;6.80;;;3.03;;
41480;SDS011;27217;51.220;5.308;2023-10-08T00:13:32;9.30;;;3.92;;
41480;SDS011;27217;51.220;5.308;2023-10-08T00:16:04;13.43;;;3.63;;
41480;SDS011;27217;51.220;5.308;2023-10-08T00:18:34;9.38;;;3.88;;
41480;SDS011;27217;51.220;5.308;2023-10-08T00:21:02;5.63;;;3.20;;
41480;SDS011;27217;51.220;5.308;2023-10-08T00:23:37;8.80;;;3.22;;
41480;SDS011;27217;51.220;5.308;2023-10-08T00:26:17;6.18;;;3.42;;
41480;SDS011;27217;51.220;5.308;2023-10-08T00:28:48;9.13;;;3.20;;
41480;SDS011;27217;51.220;5.308;2023-10-08T00:31:16;14.13;;;3.20;;
41480;SDS011;27217;51.220;5.308;2023-10-08T00:33:42;11.98;;;3.92;;
41480;SDS011;27217;51.220;5.308;2023-10-08T00:36:09;6.72;;;3.33;;
41480;SDS011;27217;51.220;5.308;2023-10-08T00:38:48;12.65;;;4.13;;
41480;SDS011;27217;51.220;5.308;2023-10-08T00:41:24;6.68;;;2.92;;
41480;SDS011;27217;51.220;5.308;2023-10-08T00:43:53;10.27;;;2.80;;
41480;SDS011;27217;51.220;5.308;2023-10-08T00:46:24;20.55;;;4.13;;
41480;SDS011;27217;51.220;5.308;2023-10-08T00:49:07;8.13;;;3.20;;
41480;SDS011;27217;51.220;5.308;2023-10-08T00:51:50;6.10;;;2.53;;
41480;SDS011;27217;51.220;5.308;2023-10-08T00:54:46;9.15;;;3.47;;
41480;SDS011;27217;51.220;5.308;2023-10-08T00:57:29;9.45;;;3.08;;
41480;SDS011;27217;51.220;5.308;2023-10-08T00:59:59;10.65;;;3.10;;
41480;SDS011;27217;51.220;5.308;2023-10-08T01:02:25;8.73;;;3.25;;
41480;SDS011;27217;51.220;5.308;2023-10-08T01:04:54;11.68;;;3.60;;
41480;SDS011;27217;51.220;5.308;2023-10-08T01:07:21;9.52;;;3.47;;
41480;SDS011;27217;51.220;5.308;2023-10-08T01:09:48;8.45;;;3.05;;
41480;SDS011;27217;51.220;5.308;2023-10-08T01:12:23;7.90;;;2.90;;
41480;SDS011;27217;51.220;5.308;2023-10-08T01:14:49;6.65;;;3.33;;
41480;SDS011;27217;51.220;5.308;2023-10-08T01:17:18;8.77;;;3.78;;
41480;SDS011;27217;51.220;5.308;2023-10-08T01:19:49;9.35;;;3.78;;
41480;SDS011;27217;51.220;5.308;2023-10-08T01:22:21;5.95;;;3.15;;
41480;SDS011;27217;51.220;5.308;2023-10-08T01:24:48;7.95;;;2.88;;
41480;SDS011;27217;51.220;5.308;2023-10-08T01:27:14;15.15;;;4.13;;
41480;SDS011;27217;51.220;5.308;2023-10-08T01:29:49;7.65;;;3.28;;
41480;SDS011;27217;51.220;5.308;2023-10-08T01:32:18;8.38;;;3.63;;
41480;SDS011;27217;51.220;5.308;2023-10-08T01:34:44;11.45;;;2.97;;
41480;SDS011;27217;51.220;5.308;2023-10-08T01:37:14;10.95;;;2.95;;
41480;SDS011;27217;51.220;5.308;2023-10-08T01:39:47;7.57;;;3.20;;
41480;SDS011;27217;51.220;5.308;2023-10-08T01:42:15;6.05;;;2.72;;
41480;SDS011;27217;51.220;5.308;2023-10-08T01:44:45;6.38;;;2.90;;
41480;SDS011;27217;51.220;5.308;2023-10-08T01:47:13;9.55;;;3.22;;
41480;SDS011;27217;51.220;5.308;2023-10-08T01:49:41;11.55;;;3.10;;
41480;SDS011;27217;51.220;5.308;2023-10-08T01:52:09;8.30;;;3.65;;
41480;SDS011;27217;51.220;5.308;2023-10-08T01:54:50;8.52;;;3.72;;
41480;SDS011;27217;51.220;5.308;2023-10-08T01:57:19;5.53;;;2.92;;
41480;SDS011;27217;51.220;5.308;2023-10-08T01:59:44;8.30;;;3.97;;
41480;SDS011;27217;51.220;5.308;2023-10-08T02:02:10;14.02;;;3.00;;
41480;SDS011;27217;51.220;5.308;2023-10-08T02:04:37;9.13;;;2.85;;
41480;SDS011;27217;51.220;5.308;2023-10-08T02:07:03;11.82;;;3.40;;
41480;SDS011;27217;51.220;5.308;2023-10-08T02:09:33;6.10;;;2.75;;
41480;SDS011;27217;51.220;5.308;2023-10-08T02:11:59;9.68;;;3.22;;
41480;SDS011;27217;51.220;5.308;2023-10-08T02:14:25;8.52;;;3.70;;
41480;SDS011;27217;51.220;5.308;2023-10-08T02:16:55;6.75;;;2.80;;
41480;SDS011;27217;51.220;5.308;2023-10-08T02:19:21;9.40;;;3.55;;
41480;SDS011;27217;51.220;5.308;2023-10-08T02:21:52;8.67;;;3.43;;
41480;SDS011;27217;51.220;5.308;2023-10-08T02:24:19;5.60;;;2.65;;
41480;SDS011;27217;51.220;5.308;2023-10-08T02:26:46;5.50;;;3.33;;
41480;SDS011;27217;51.220;5.308;2023-10-08T02:29:12;8.52;;;3.85;;
41480;SDS011;27217;51.220;5.308;2023-10-08T02:31:38;10.15;;;2.83;;
41480;SDS011;27217;51.220;5.308;2023-10-08T02:34:05;5.22;;;2.75;;
41480;SDS011;27217;51.220;5.308;2023-10-08T02:36:38;8.18;;;2.97;;
41480;SDS011;27217;51.220;5.308;2023-10-08T02:39:08;8.27;;;3.10;;
41480;SDS011;27217;51.220;5.308;2023-10-08T02:41:54;11.45;;;4.22;;
41480;SDS011;27217;51.220;5.308;2023-10-08T02:44:23;10.32;;;2.97;;
41480;SDS011;27217;51.220;5.308;2023-10-08T02:46:49;8.75;;;3.47;;
41480;SDS011;27217;51.220;5.308;2023-10-08T02:49:19;8.00;;;3.30;;
41480;SDS011;27217;51.220;5.308;2023-10-08T02:51:47;8.55;;;3.20;;
41480;SDS011;27217;51.220;5.308;2023-10-08T02:54:16;13.88;;;3.95;;
41480;SDS011;27217;51.220;5.308;2023-10-08T02:56:56;5.32;;;2.92;;
41480;SDS011;27217;51.220;5.308;2023-10-08T02:59:32;11.38;;;3.17;;
41480;SDS011;27217;51.220;5.308;2023-10-08T03:02:10;9.07;;;2.97;;
41480;SDS011;27217;51.220;5.308;2023-10-08T03:04:46;4.65;;;2.92;;
41480;SDS011;27217;51.220;5.308;2023-10-08T03:07:16;7.45;;;3.13;;
41480;SDS011;27217;51.220;5.308;2023-10-08T03:09:57;8.65;;;3.30;;
41480;SDS011;27217;51.220;5.308;2023-10-08T03:12:43;11.88;;;3.58;;
41480;SDS011;27217;51.220;5.308;2023-10-08T03:15:11;9.02;;;2.80;;
41480;SDS011;27217;51.220;5.308;2023-10-08T03:17:39;8.10;;;3.13;;
41480;SDS011;27217;51.220;5.308;2023-10-08T03:20:16;9.70;;;3.03;;
41480;SDS011;27217;51.220;5.308;2023-10-08T03:23:02;8.57;;;4.03;;
41480;SDS011;27217;51.220;5.308;2023-10-08T03:25:41;14.77;;;3.15;;
41480;SDS011;27217;51.220;5.308;2023-10-08T03:28:09;10.70;;;3.42;;
41480;SDS011;27217;51.220;5.308;2023-10-08T03:30:38;7.93;;;2.88;;
41480;SDS011;27217;51.220;5.308;2023-10-08T03:33:14;5.93;;;2.90;;
41480;SDS011;27217;51.220;5.308;2023-10-08T03:35:50;7.45;;;3.00;;
41480;SDS011;27217;51.220;5.308;2023-10-08T03:38:20;7.90;;;3.22;;
41480;SDS011;27217;51.220;5.308;2023-10-08T03:41:04;8.85;;;3.08;;
41480;SDS011;27217;51.220;5.308;2023-10-08T03:43:32;8.65;;;3.20;;
41480;SDS011;27217;51.220;5.308;2023-10-08T03:46:11;8.63;;;3.00;;
41480;SDS011;27217;51.220;5.308;2023-10-08T03:48:43;8.48;;;3.03;;
41480;SDS011;27217;51.220;5.308;2023-10-08T03:51:13;8.00;;;3.13;;
41480;SDS011;27217;51.220;5.308;2023-10-08T03:53:39;10.80;;;4.15;;
41480;SDS011;27217;51.220;5.308;2023-10-08T03:56:34;8.60;;;3.17;;
41480;SDS011;27217;51.220;5.308;2023-10-08T03:59:02;7.35;;;2.88;;
41480;SDS011;27217;51.220;5.308;2023-10-08T04:01:37;7.13;;;3.00;;
41480;SDS011;27217;51.220;5.308;2023-10-08T04:04:05;12.23;;;2.72;;
41480;SDS011;27217;51.220;5.308;2023-10-08T04:06:37;9.40;;;3.55;;
41480;SDS011;27217;51.220;5.308;2023-10-08T04:09:04;10.68;;;3.78;;
41480;SDS011;27217;51.220;5.308;2023-10-08T04:11:33;7.43;;;2.90;;
41480;SDS011;27217;51.220;5.308;2023-10-08T04:14:08;14.90;;;3.40;;
41480;SDS011;27217;51.220;5.308;2023-10-08T04:16:34;7.57;;;3.05;;
41480;SDS011;27217;51.220;5.308;2023-10-08T04:19:03;11.35;;;3.50;;
41480;SDS011;27217;51.220;5.308;2023-10-08T04:21:29;9.57;;;2.88;;
41480;SDS011;27217;51.220;5.308;2023-10-08T04:23:58;7.25;;;3.13;;
41480;SDS011;27217;51.220;5.308;2023-10-08T04:26:28;11.80;;;3.33;;
41480;SDS011;27217;51.220;5.308;2023-10-08T04:28:54;9.55;;;3.58;;
41480;SDS011;27217;51.220;5.308;2023-10-08T04:31:27;9.93;;;3.30;;
41480;SDS011;27217;51.220;5.308;2023-10-08T04:34:06;9.75;;;3.22;;
41480;SDS011;27217;51.220;5.308;2023-10-08T04:36:45;8.77;;;3.42;;
41480;SDS011;27217;51.220;5.308;2023-10-08T04:39:14;9.38;;;3.40;;
41480;SDS011;27217;51.220;5.308;2023-10-08T04:41:46;10.00;;;2.95;;
41480;SDS011;27217;51.220;5.308;2023-10-08T04:44:19;11.80;;;4.07;;
41480;SDS011;27217;51.220;5.308;2023-10-08T04:46:47;11.07;;;3.42;;
41480;SDS011;27217;51.220;5.308;2023-10-08T04:49:17;11.75;;;2.97;;
41480;SDS011;27217;51.220;5.308;2023-10-08T04:51:56;7.88;;;3.15;;
41480;SDS011;27217;51.220;5.308;2023-10-08T04:54:27;7.32;;;3.55;;
41480;SDS011;27217;51.220;5.308;2023-10-08T04:56:56;5.93;;;3.45;;
41480;SDS011;27217;51.220;5.308;2023-10-08T04:59:23;12.30;;;3.33;;
41480;SDS011;27217;51.220;5.308;2023-10-08T05:01:57;17.60;;;3.25;;
41480;SDS011;27217;51.220;5.308;2023-10-08T05:04:42;6.47;;;2.70;;
41480;SDS011;27217;51.220;5.308;2023-10-08T05:07:24;7.05;;;3.10;;
41480;SDS011;27217;51.220;5.308;2023-10-08T05:10:05;8.80;;;3.20;;
41480;SDS011;27217;51.220;5.308;2023-10-08T05:12:32;10.15;;;3.30;;
41480;SDS011;27217;51.220;5.308;2023-10-08T05:14:58;9.57;;;3.35;;
41480;SDS011;27217;51.220;5.308;2023-10-08T05:17:48;11.25;;;3.85;;
41480;SDS011;27217;51.220;5.308;2023-10-08T05:20:17;13.10;;;3.28;;
41480;SDS011;27217;51.220;5.308;2023-10-08T05:23:05;7.10;;;3.63;;
41480;SDS011;27217;51.220;5.308;2023-10-08T05:25:49;8.77;;;3.78;;
41480;SDS011;27217;51.220;5.308;2023-10-08T05:28:37;7.07;;;3.20;;
41480;SDS011;27217;51.220;5.308;2023-10-08T05:31:23;14.23;;;4.28;;
41480;SDS011;27217;51.220;5.308;2023-10-08T05:34:07;9.23;;;4.40;;
41480;SDS011;27217;51.220;5.308;2023-10-08T05:36:58;16.30;;;4.20;;
41480;SDS011;27217;51.220;5.308;2023-10-08T05:39:30;8.35;;;3.38;;
41480;SDS011;27217;51.220;5.308;2023-10-08T05:42:08;7.85;;;3.70;;
41480;SDS011;27217;51.220;5.308;2023-10-08T05:44:53;11.95;;;3.88;;
41480;SDS011;27217;51.220;5.308;2023-10-08T05:47:34;9.20;;;3.88;;
41480;SDS011;27217;51.220;5.308;2023-10-08T05:50:00;7.43;;;3.25;;
41480;SDS011;27217;51.220;5.308;2023-10-08T05:52:42;9.60;;;3.20;;
41480;SDS011;27217;51.220;5.308;2023-10-08T05:55:23;8.75;;;2.97;;
41480;SDS011;27217;51.220;5.308;2023-10-08T05:57:53;6.68;;;3.72;;
41480;SDS011;27217;51.220;5.308;2023-10-08T06:00:42;8.32;;;4.00;;
41480;SDS011;27217;51.220;5.308;2023-10-08T06:03:15;8.43;;;3.80;;
41480;SDS011;27217;51.220;5.308;2023-10-08T06:06:12;11.63;;;4.03;;
41480;SDS011;27217;51.220;5.308;2023-10-08T06:08:41;10.15;;;3.38;;
41480;SDS011;27217;51.220;5.308;2023-10-08T06:11:17;10.15;;;3.45;;
41480;SDS011;27217;51.220;5.308;2023-10-08T06:14:01;8.13;;;3.92;;
41480;SDS011;27217;51.220;5.308;2023-10-08T06:16:36;11.88;;;4.07;;
41480;SDS011;27217;51.220;5.308;2023-10-08T06:19:09;12.05;;;4.07;;
41480;SDS011;27217;51.220;5.308;2023-10-08T06:21:40;12.30;;;4.05;;
41480;SDS011;27217;51.220;5.308;2023-10-08T06:24:07;11.30;;;4.20;;
41480;SDS011;27217;51.220;5.308;2023-10-08T06:26:40;13.60;;;5.15;;
41480;SDS011;27217;51.220;5.308;2023-10-08T06:29:13;6.78;;;3.65;;
41480;SDS011;27217;51.220;5.308;2023-10-08T06:31:56;7.68;;;3.95;;
41480;SDS011;27217;51.220;5.308;2023-10-08T06:34:27;8.93;;;3.97;;
41480;SDS011;27217;51.220;5.308;2023-10-08T06:36:53;14.02;;;3.58;;
41480;SDS011;27217;51.220;5.308;2023-10-08T06:39:21;13.48;;;4.38;;
41480;SDS011;27217;51.220;5.308;2023-10-08T06:41:53;13.50;;;4.07;;
41480;SDS011;27217;51.220;5.308;2023-10-08T06:44:21;11.00;;;4.43;;
41480;SDS011;27217;51.220;5.308;2023-10-08T06:46:51;13.73;;;4.10;;
41480;SDS011;27217;51.220;5.308;2023-10-08T06:49:20;8.88;;;4.40;;
41480;SDS011;27217;51.220;5.308;2023-10-08T06:51:49;10.70;;;4.50;;
41480;SDS011;27217;51.220;5.308;2023-10-08T06:54:16;8.77;;;4.13;;
41480;SDS011;27217;51.220;5.308;2023-10-08T06:56:46;7.18;;;3.38;;
41480;SDS011;27217;51.220;5.308;2023-10-08T06:59:13;11.02;;;3.88;;
41480;SDS011;27217;51.220;5.308;2023-10-08T07:01:40;9.57;;;4.13;;
41480;SDS011;27217;51.220;5.308;2023-10-08T07:04:10;10.80;;;3.75;;
41480;SDS011;27217;51.220;5.308;2023-10-08T07:06:37;14.43;;;4.15;;
41480;SDS011;27217;51.220;5.308;2023-10-08T07:09:04;11.13;;;4.07;;
41480;SDS011;27217;51.220;5.308;2023-10-08T07:11:34;10.52;;;4.35;;
41480;SDS011;27217;51.220;5.308;2023-10-08T07:14:04;12.73;;;4.25;;
41480;SDS011;27217;51.220;5.308;2023-10-08T07:16:31;12.30;;;4.78;;
41480;SDS011;27217;51.220;5.308;2023-10-08T07:18:57;8.48;;;3.97;;
41480;SDS011;27217;51.220;5.308;2023-10-08T07:21:28;17.75;;;4.80;;
41480;SDS011;27217;51.220;5.308;2023-10-08T07:23:57;12.82;;;4.30;;
41480;SDS011;27217;51.220;5.308;2023-10-08T07:26:27;14.82;;;4.95;;
41480;SDS011;27217;51.220;5.308;2023-10-08T07:29:05;15.43;;;4.93;;
41480;SDS011;27217;51.220;5.308;2023-10-08T07:31:35;10.27;;;4.32;;
41480;SDS011;27217;51.220;5.308;2023-10-08T07:34:02;9.73;;;4.50;;
41480;SDS011;27217;51.220;5.308;2023-10-08T07:36:52;10.00;;;4.55;;
41480;SDS011;27217;51.220;5.308;2023-10-08T07:39:20;14.43;;;5.00;;
41480;SDS011;27217;51.220;5.308;2023-10-08T07:42:07;14.48;;;4.93;;
41480;SDS011;27217;51.220;5.308;2023-10-08T07:44:33;13.93;;;4.75;;
41480;SDS011;27217;51.220;5.308;2023-10-08T07:47:03;13.25;;;5.28;;
41480;SDS011;27217;51.220;5.308;2023-10-08T07:49:35;12.07;;;4.82;;
41480;SDS011;27217;51.220;5.308;2023-10-08T07:52:01;14.80;;;4.68;;
41480;SDS011;27217;51.220;5.308;2023-10-08T07:54:29;12.25;;;4.63;;
41480;SDS011;27217;51.220;5.308;2023-10-08T07:56:59;11.05;;;4.72;;
41480;SDS011;27217;51.220;5.308;2023-10-08T07:59:37;12.85;;;4.43;;
41480;SDS011;27217;51.220;5.308;2023-10-08T08:02:06;10.35;;;4.70;;
41480;SDS011;27217;51.220;5.308;2023-10-08T08:04:44;10.80;;;5.07;;
41480;SDS011;27217;51.220;5.308;2023-10-08T08:07:10;10.65;;;5.10;;
41480;SDS011;27217;51.220;5.308;2023-10-08T08:09:43;11.98;;;4.95;;
41480;SDS011;27217;51.220;5.308;2023-10-08T08:12:15;16.27;;;5.55;;
41480;SDS011;27217;51.220;5.308;2023-10-08T08:14:42;13.85;;;5.60;;
41480;SDS011;27217;51.220;5.308;2023-10-08T08:17:08;18.38;;;6.07;;
41480;SDS011;27217;51.220;5.308;2023-10-08T08:22:10;14.95;;;5.68;;
41480;SDS011;27217;51.220;5.308;2023-10-08T08:24:56;17.48;;;6.00;;
41480;SDS011;27217;51.220;5.308;2023-10-08T08:27:30;16.25;;;5.90;;
41480;SDS011;27217;51.220;5.308;2023-10-08T08:29:59;23.15;;;6.28;;
41480;SDS011;27217;51.220;5.308;2023-10-08T08:32:40;18.67;;;5.80;;
41480;SDS011;27217;51.220;5.308;2023-10-08T08:35:10;13.18;;;5.53;;
41480;SDS011;27217;51.220;5.308;2023-10-08T08:37:37;20.05;;;6.00;;
41480;SDS011;27217;51.220;5.308;2023-10-08T08:40:06;14.30;;;5.55;;
41480;SDS011;27217;51.220;5.308;2023-10-08T08:42:43;14.30;;;5.25;;
41480;SDS011;27217;51.220;5.308;2023-10-08T08:45:12;12.20;;;5.10;;
41480;SDS011;27217;51.220;5.308;2023-10-08T08:47:40;15.30;;;6.65;;
41480;SDS011;27217;51.220;5.308;2023-10-08T08:50:10;23.60;;;5.90;;
41480;SDS011;27217;51.220;5.308;2023-10-08T08:52:36;17.10;;;5.50;;
41480;SDS011;27217;51.220;5.308;2023-10-08T08:55:04;17.60;;;6.30;;
41480;SDS011;27217;51.220;5.308;2023-10-08T08:57:35;16.27;;;5.30;;
41480;SDS011;27217;51.220;5.308;2023-10-08T09:00:05;15.25;;;6.03;;
41480;SDS011;27217;51.220;5.308;2023-10-08T09:02:37;17.95;;;6.20;;
41480;SDS011;27217;51.220;5.308;2023-10-08T09:05:03;18.25;;;6.28;;
41480;SDS011;27217;51.220;5.308;2023-10-08T09:07:58;17.25;;;6.72;;
41480;SDS011;27217;51.220;5.308;2023-10-08T09:10:24;20.20;;;6.13;;
41480;SDS011;27217;51.220;5.308;2023-10-08T09:12:55;14.20;;;6.32;;
41480;SDS011;27217;51.220;5.308;2023-10-08T09:15:25;14.45;;;5.95;;
41480;SDS011;27217;51.220;5.308;2023-10-08T09:17:52;15.38;;;6.30;;
41480;SDS011;27217;51.220;5.308;2023-10-08T09:20:19;21.08;;;6.93;;
41480;SDS011;27217;51.220;5.308;2023-10-08T09:22:46;23.08;;;7.75;;
41480;SDS011;27217;51.220;5.308;2023-10-08T09:25:32;17.35;;;6.88;;
41480;SDS011;27217;51.220;5.308;2023-10-08T09:27:58;19.83;;;7.47;;
41480;SDS011;27217;51.220;5.308;2023-10-08T09:30:24;18.42;;;6.65;;
41480;SDS011;27217;51.220;5.308;2023-10-08T09:32:51;20.63;;;6.95;;
41480;SDS011;27217;51.220;5.308;2023-10-08T09:35:17;13.95;;;6.60;;
41480;SDS011;27217;51.220;5.308;2023-10-08T09:37:44;21.92;;;6.93;;
41480;SDS011;27217;51.220;5.308;2023-10-08T09:40:10;20.63;;;6.43;;
41480;SDS011;27217;51.220;5.308;2023-10-08T09:42:40;20.23;;;7.93;;
41480;SDS011;27217;51.220;5.308;2023-10-08T09:45:08;15.98;;;6.63;;
41480;SDS011;27217;51.220;5.308;2023-10-08T09:47:36;16.05;;;6.18;;
41480;SDS011;27217;51.220;5.308;2023-10-08T09:50:07;22.40;;;7.30;;
41480;SDS011;27217;51.220;5.308;2023-10-08T09:52:49;21.20;;;7.40;;
41480;SDS011;27217;51.220;5.308;2023-10-08T09:55:23;20.77;;;7.93;;
41480;SDS011;27217;51.220;5.308;2023-10-08T09:57:49;23.70;;;7.72;;
41480;SDS011;27217;51.220;5.308;2023-10-08T10:00:20;18.30;;;7.80;;
41480;SDS011;27217;51.220;5.308;2023-10-08T10:02:56;28.52;;;9.88;;
41480;SDS011;27217;51.220;5.308;2023-10-08T10:05:35;20.10;;;8.02;;
41480;SDS011;27217;51.220;5.308;2023-10-08T10:08:04;21.45;;;7.55;;
41480;SDS011;27217;51.220;5.308;2023-10-08T10:10:34;30.88;;;8.73;;
41480;SDS011;27217;51.220;5.308;2023-10-08T10:13:05;25.08;;;9.23;;
41480;SDS011;27217;51.220;5.308;2023-10-08T10:15:35;22.27;;;8.43;;
41480;SDS011;27217;51.220;5.308;2023-10-08T10:18:16;31.65;;;10.02;;
41480;SDS011;27217;51.220;5.308;2023-10-08T10:20:52;29.60;;;9.73;;
41480;SDS011;27217;51.220;5.308;2023-10-08T10:25:59;24.90;;;8.90;;
41480;SDS011;27217;51.220;5.308;2023-10-08T10:28:28;21.38;;;8.27;;
41480;SDS011;27217;51.220;5.308;2023-10-08T10:30:54;22.02;;;8.45;;
41480;SDS011;27217;51.220;5.308;2023-10-08T10:33:31;29.20;;;9.80;;
41480;SDS011;27217;51.220;5.308;2023-10-08T10:35:58;21.20;;;8.18;;
41480;SDS011;27217;51.220;5.308;2023-10-08T10:38:27;25.65;;;8.90;;
41480;SDS011;27217;51.220;5.308;2023-10-08T10:40:54;22.83;;;7.22;;
41480;SDS011;27217;51.220;5.308;2023-10-08T10:43:26;20.02;;;7.38;;
41480;SDS011;27217;51.220;5.308;2023-10-08T10:46:01;19.08;;;7.07;;
41480;SDS011;27217;51.220;5.308;2023-10-08T10:48:46;18.45;;;7.15;;
41480;SDS011;27217;51.220;5.308;2023-10-08T10:51:30;16.80;;;6.80;;
41480;SDS011;27217;51.220;5.308;2023-10-08T10:53:56;27.48;;;7.82;;
41480;SDS011;27217;51.220;5.308;2023-10-08T10:56:28;24.77;;;6.68;;
41480;SDS011;27217;51.220;5.308;2023-10-08T10:59:04;27.73;;;7.32;;
41480;SDS011;27217;51.220;5.308;2023-10-08T11:01:43;22.85;;;8.35;;
41480;SDS011;27217;51.220;5.308;2023-10-08T11:04:12;32.28;;;7.57;;
41480;SDS011;27217;51.220;5.308;2023-10-08T11:06:45;17.15;;;7.15;;
41480;SDS011;27217;51.220;5.308;2023-10-08T11:09:13;17.63;;;6.85;;
41480;SDS011;27217;51.220;5.308;2023-10-08T11:11:43;20.85;;;6.55;;
41480;SDS011;27217;51.220;5.308;2023-10-08T11:14:11;26.58;;;7.28;;
41480;SDS011;27217;51.220;5.308;2023-10-08T11:16:43;18.75;;;6.43;;
41480;SDS011;27217;51.220;5.308;2023-10-08T11:19:10;19.25;;;6.70;;
41480;SDS011;27217;51.220;5.308;2023-10-08T11:21:53;18.65;;;6.13;;
41480;SDS011;27217;51.220;5.308;2023-10-08T11:24:28;23.70;;;6.78;;
41480;SDS011;27217;51.220;5.308;2023-10-08T11:27:01;13.95;;;5.82;;
41480;SDS011;27217;51.220;5.308;2023-10-08T11:29:46;19.00;;;5.82;;
41480;SDS011;27217;51.220;5.308;2023-10-08T11:32:14;21.45;;;6.35;;
41480;SDS011;27217;51.220;5.308;2023-10-08T11:34:50;20.70;;;6.97;;
41480;SDS011;27217;51.220;5.308;2023-10-08T11:37:26;15.85;;;6.63;;
41480;SDS011;27217;51.220;5.308;2023-10-08T11:39:53;14.55;;;6.82;;
41480;SDS011;27217;51.220;5.308;2023-10-08T11:42:23;29.10;;;6.82;;
41480;SDS011;27217;51.220;5.308;2023-10-08T11:45:01;19.40;;;5.85;;
41480;SDS011;27217;51.220;5.308;2023-10-08T11:50:37;21.13;;;6.82;;
41480;SDS011;27217;51.220;5.308;2023-10-08T11:53:05;22.83;;;7.68;;
41480;SDS011;27217;51.220;5.308;2023-10-08T11:55:32;16.80;;;6.35;;
41480;SDS011;27217;51.220;5.308;2023-10-08T11:58:00;23.30;;;7.00;;
41480;SDS011;27217;51.220;5.308;2023-10-08T12:00:35;20.75;;;7.68;;
41480;SDS011;27217;51.220;5.308;2023-10-08T12:03:11;22.48;;;7.43;;
41480;SDS011;27217;51.220;5.308;2023-10-08T12:05:41;17.92;;;6.25;;
41480;SDS011;27217;51.220;5.308;2023-10-08T12:08:12;25.98;;;6.68;;
41480;SDS011;27217;51.220;5.308;2023-10-08T12:10:41;15.10;;;5.90;;
41480;SDS011;27217;51.220;5.308;2023-10-08T12:13:11;18.57;;;6.40;;
41480;SDS011;27217;51.220;5.308;2023-10-08T12:15:37;24.88;;;7.20;;
41480;SDS011;27217;51.220;5.308;2023-10-08T12:18:03;22.08;;;7.13;;
41480;SDS011;27217;51.220;5.308;2023-10-08T12:20:40;24.77;;;7.15;;
41480;SDS011;27217;51.220;5.308;2023-10-08T12:23:10;18.42;;;6.35;;
41480;SDS011;27217;51.220;5.308;2023-10-08T12:25:36;22.17;;;6.38;;
41480;SDS011;27217;51.220;5.308;2023-10-08T12:28:03;22.13;;;6.70;;
41480;SDS011;27217;51.220;5.308;2023-10-08T12:30:32;18.70;;;5.38;;
41480;SDS011;27217;51.220;5.308;2023-10-08T12:33:08;23.13;;;6.65;;
41480;SDS011;27217;51.220;5.308;2023-10-08T12:35:40;18.48;;;6.40;;
41480;SDS011;27217;51.220;5.308;2023-10-08T12:38:09;14.00;;;6.20;;
41480;SDS011;27217;51.220;5.308;2023-10-08T12:40:35;12.73;;;5.82;;
41480;SDS011;27217;51.220;5.308;2023-10-08T12:43:12;14.48;;;5.80;;
41480;SDS011;27217;51.220;5.308;2023-10-08T12:45:43;16.20;;;5.22;;
41480;SDS011;27217;51.220;5.308;2023-10-08T12:48:17;15.25;;;5.70;;
41480;SDS011;27217;51.220;5.308;2023-10-08T12:50:47;19.88;;;5.90;;
41480;SDS011;27217;51.220;5.308;2023-10-08T12:53:22;14.85;;;5.50;;
41480;SDS011;27217;51.220;5.308;2023-10-08T12:55:52;13.70;;;5.43;;
41480;SDS011;27217;51.220;5.308;2023-10-08T12:58:20;12.32;;;6.20;;
41480;SDS011;27217;51.220;5.308;2023-10-08T13:00:50;15.77;;;5.72;;
41480;SDS011;27217;51.220;5.308;2023-10-08T13:03:25;13.85;;;5.88;;
41480;SDS011;27217;51.220;5.308;2023-10-08T13:05:55;17.55;;;5.70;;
41480;SDS011;27217;51.220;5.308;2023-10-08T13:08:29;16.67;;;5.38;;
41480;SDS011;27217;51.220;5.308;2023-10-08T13:10:56;12.02;;;5.13;;
41480;SDS011;27217;51.220;5.308;2023-10-08T13:13:26;13.13;;;5.23;;
41480;SDS011;27217;51.220;5.308;2023-10-08T13:15:52;21.25;;;6.30;;
41480;SDS011;27217;51.220;5.308;2023-10-08T13:18:21;9.82;;;4.97;;
41480;SDS011;27217;51.220;5.308;2023-10-08T13:20:50;13.32;;;5.03;;
41480;SDS011;27217;51.220;5.308;2023-10-08T13:23:16;20.98;;;6.20;;
41480;SDS011;27217;51.220;5.308;2023-10-08T13:25:44;18.92;;;5.60;;
41480;SDS011;27217;51.220;5.308;2023-10-08T13:28:11;16.67;;;5.28;;
41480;SDS011;27217;51.220;5.308;2023-10-08T13:30:37;14.02;;;4.68;;
41480;SDS011;27217;51.220;5.308;2023-10-08T13:33:03;15.77;;;5.45;;
41480;SDS011;27217;51.220;5.308;2023-10-08T13:35:29;12.05;;;5.18;;
41480;SDS011;27217;51.220;5.308;2023-10-08T13:37:54;17.38;;;5.28;;
41480;SDS011;27217;51.220;5.308;2023-10-08T13:40:21;24.80;;;5.45;;
41480;SDS011;27217;51.220;5.308;2023-10-08T13:42:57;20.40;;;4.88;;
41480;SDS011;27217;51.220;5.308;2023-10-08T13:45:23;16.70;;;5.00;;
41480;SDS011;27217;51.220;5.308;2023-10-08T13:47:54;12.20;;;5.35;;
41480;SDS011;27217;51.220;5.308;2023-10-08T13:50:21;11.43;;;4.97;;
41480;SDS011;27217;51.220;5.308;2023-10-08T13:52:47;13.73;;;5.13;;
41480;SDS011;27217;51.220;5.308;2023-10-08T13:55:12;9.95;;;4.70;;
41480;SDS011;27217;51.220;5.308;2023-10-08T13:57:41;16.70;;;5.10;;
41480;SDS011;27217;51.220;5.308;2023-10-08T14:00:09;10.40;;;5.25;;
41480;SDS011;27217;51.220;5.308;2023-10-08T14:02:41;9.80;;;4.70;;
41480;SDS011;27217;51.220;5.308;2023-10-08T14:05:08;22.45;;;5.63;;
41480;SDS011;27217;51.220;5.308;2023-10-08T14:07:34;17.30;;;5.90;;
41480;SDS011;27217;51.220;5.308;2023-10-08T14:10:01;18.25;;;5.70;;
41480;SDS011;27217;51.220;5.308;2023-10-08T14:12:33;18.67;;;5.03;;
41480;SDS011;27217;51.220;5.308;2023-10-08T14:15:00;22.80;;;5.78;;
41480;SDS011;27217;51.220;5.308;2023-10-08T14:17:32;17.00;;;5.95;;
41480;SDS011;27217;51.220;5.308;2023-10-08T14:20:13;10.77;;;4.95;;
41480;SDS011;27217;51.220;5.308;2023-10-08T14:22:40;15.05;;;5.22;;
41480;SDS011;27217;51.220;5.308;2023-10-08T14:25:07;11.23;;;4.60;;
41480;SDS011;27217;51.220;5.308;2023-10-08T14:27:42;19.02;;;5.60;;
41480;SDS011;27217;51.220;5.308;2023-10-08T14:30:16;11.63;;;4.97;;
41480;SDS011;27217;51.220;5.308;2023-10-08T14:32:46;14.15;;;4.95;;
41480;SDS011;27217;51.220;5.308;2023-10-08T14:35:12;12.98;;;4.60;;
41480;SDS011;27217;51.220;5.308;2023-10-08T14:37:57;14.95;;;4.57;;
41480;SDS011;27217;51.220;5.308;2023-10-08T14:40:41;13.73;;;4.97;;
41480;SDS011;27217;51.220;5.308;2023-10-08T14:43:26;15.95;;;5.13;;
41480;SDS011;27217;51.220;5.308;2023-10-08T14:45:56;14.27;;;5.07;;
41480;SDS011;27217;51.220;5.308;2023-10-08T14:48:23;13.68;;;5.32;;
41480;SDS011;27217;51.220;5.308;2023-10-08T14:50:48;13.90;;;5.22;;
41480;SDS011;27217;51.220;5.308;2023-10-08T14:53:14;17.88;;;5.65;;
41480;SDS011;27217;51.220;5.308;2023-10-08T14:55:40;20.85;;;5.68;;
41480;SDS011;27217;51.220;5.308;2023-10-08T14:58:06;21.30;;;5.97;;
41480;SDS011;27217;51.220;5.308;2023-10-08T15:00:36;11.82;;;5.18;;
41480;SDS011;27217;51.220;5.308;2023-10-08T15:03:03;14.40;;;5.32;;
41480;SDS011;27217;51.220;5.308;2023-10-08T15:05:30;17.50;;;5.07;;
41480;SDS011;27217;51.220;5.308;2023-10-08T15:07:56;16.52;;;5.07;;
41480;SDS011;27217;51.220;5.308;2023-10-08T15:10:22;11.40;;;4.72;;
41480;SDS011;27217;51.220;5.308;2023-10-08T15:12:48;11.68;;;4.85;;